sensor_id;sensor_type;location;lat;lon;timestamp;P1;durP1;ratioP1;P2;durP2;ratioP2
44981;SDS011;30716;41.740;-70.400;2023-06-19T00:46:09;11.70;;;3.78;;
44981;SDS011;30716;41.740;-70.400;2023-06-19T00:48:36;12.30;;;4.25;;
44981;SDS011;30716;41.740;-70.400;2023-06-19T00:51:02;5.57;;;3.00;;
44981;SDS011;30716;41.740;-70.400;2023-06-19T00:53:28;10.05;;;3.88;;
44981;SDS011;30716;41.740;-70.400;2023-06-19T00:55:58;9.10;;;3.00;;
44981;SDS011;30716;41.740;-70.400;2023-06-19T00:58:25;9.40;;;3.08;;
44981;SDS011;30716;41.740;-70.400;2023-06-19T01:00:52;8.13;;;3.30;;
44981;SDS011;30716;41.740;-70.400;2023-06-19T01:03:18;6.55;;;2.70;;
44981;SDS011;30716;41.740;-70.400;2023-06-19T01:05:45;8.52;;;2.85;;
44981;SDS011;30716;41.740;-70.400;2023-06-19T01:11:11;8.65;;;3.08;;
44981;SDS011;30716;41.740;-70.400;2023-06-19T01:18:32;11.27;;;3.10;;
44981;SDS011;30716;41.740;-70.400;2023-06-19T01:21:11;9.38;;;3.17;;
44981;SDS011;30716;41.740;-70.400;2023-06-19T01:23:38;9.43;;;2.58;;
44981;SDS011;30716;41.740;-70.400;2023-06-19T01:26:05;6.35;;;2.28;;
44981;SDS011;30716;41.740;-70.400;2023-06-19T01:28:35;11.02;;;3.60;;
44981;SDS011;30716;41.740;-70.400;2023-06-19T01:31:08;7.80;;;3.10;;
44981;SDS011;30716;41.740;-70.400;2023-06-19T01:33:56;10.43;;;3.15;;
44981;SDS011;30716;41.740;-70.400;2023-06-19T01:36:25;7.40;;;2.60;;
44981;SDS011;30716;41.740;-70.400;2023-06-19T01:38:52;5.30;;;2.47;;
44981;SDS011;30716;41.740;-70.400;2023-06-19T01:41:21;5.15;;;2.33;;
44981;SDS011;30716;41.740;-70.400;2023-06-19T01:43:49;5.70;;;2.45;;
44981;SDS011;30716;41.740;-70.400;2023-06-19T01:46:19;5.80;;;2.30;;
44981;SDS011;30716;41.740;-70.400;2023-06-19T01:48:45;6.07;;;2.38;;
44981;SDS011;30716;41.740;-70.400;2023-06-19T01:51:11;6.93;;;1.80;;
44981;SDS011;30716;41.740;-70.400;2023-06-19T01:53:37;6.82;;;2.83;;
44981;SDS011;30716;41.740;-70.400;2023-06-19T01:56:04;7.25;;;2.50;;
44981;SDS011;30716;41.740;-70.400;2023-06-19T01:58:30;4.22;;;2.40;;
44981;SDS011;30716;41.740;-70.400;2023-06-19T02:00:56;4.80;;;1.73;;
44981;SDS011;30716;41.740;-70.400;2023-06-19T02:03:22;5.78;;;1.63;;
44981;SDS011;30716;41.740;-70.400;2023-06-19T02:05:49;4.85;;;1.48;;
44981;SDS011;30716;41.740;-70.400;2023-06-19T02:08:15;3.67;;;1.33;;
44981;SDS011;30716;41.740;-70.400;2023-06-19T02:10:41;5.43;;;1.23;;
44981;SDS011;30716;41.740;-70.400;2023-06-19T02:13:07;3.35;;;1.27;;
44981;SDS011;30716;41.740;-70.400;2023-06-19T02:15:35;3.33;;;1.40;;
44981;SDS011;30716;41.740;-70.400;2023-06-19T02:18:02;5.53;;;1.40;;
44981;SDS011;30716;41.740;-70.400;2023-06-19T02:20:28;4.65;;;1.50;;
44981;SDS011;30716;41.740;-70.400;2023-06-19T02:22:54;2.95;;;1.52;;
44981;SDS011;30716;41.740;-70.400;2023-06-19T02:25:20;3.42;;;0.98;;
44981;SDS011;30716;41.740;-70.400;2023-06-19T02:27:47;3.25;;;1.25;;
44981;SDS011;30716;41.740;-70.400;2023-06-19T02:30:13;4.65;;;1.40;;
44981;SDS011;30716;41.740;-70.400;2023-06-19T02:32:39;4.40;;;1.40;;
44981;SDS011;30716;41.740;-70.400;2023-06-19T02:35:06;4.30;;;1.40;;
44981;SDS011;30716;41.740;-70.400;2023-06-19T02:37:34;4.43;;;1.48;;
44981;SDS011;30716;41.740;-70.400;2023-06-19T02:40:06;4.22;;;2.10;;
44981;SDS011;30716;41.740;-70.400;2023-06-19T02:42:34;3.22;;;1.15;;
44981;SDS011;30716;41.740;-70.400;2023-06-19T02:45:00;5.22;;;1.52;;
44981;SDS011;30716;41.740;-70.400;2023-06-19T02:47:30;4.30;;;1.30;;
44981;SDS011;30716;41.740;-70.400;2023-06-19T02:50:00;6.50;;;1.83;;
44981;SDS011;30716;41.740;-70.400;2023-06-19T02:52:28;3.65;;;1.30;;
44981;SDS011;30716;41.740;-70.400;2023-06-19T02:54:55;1.75;;;1.00;;
44981;SDS011;30716;41.740;-70.400;2023-06-19T02:57:21;3.45;;;1.10;;
44981;SDS011;30716;41.740;-70.400;2023-06-19T02:59:47;7.72;;;1.45;;
44981;SDS011;30716;41.740;-70.400;2023-06-19T03:02:14;3.75;;;1.00;;
44981;SDS011;30716;41.740;-70.400;2023-06-19T03:04:40;3.03;;;0.98;;
44981;SDS011;30716;41.740;-70.400;2023-06-19T03:07:06;3.45;;;1.13;;
44981;SDS011;30716;41.740;-70.400;2023-06-19T03:09:33;4.20;;;1.15;;
44981;SDS011;30716;41.740;-70.400;2023-06-19T03:11:59;3.90;;;1.38;;
44981;SDS011;30716;41.740;-70.400;2023-06-19T03:14:25;2.88;;;1.35;;
44981;SDS011;30716;41.740;-70.400;2023-06-19T03:16:51;3.53;;;1.00;;
44981;SDS011;30716;41.740;-70.400;2023-06-19T03:19:17;4.85;;;0.93;;
44981;SDS011;30716;41.740;-70.400;2023-06-19T03:21:43;3.30;;;0.80;;
44981;SDS011;30716;41.740;-70.400;2023-06-19T03:24:09;2.55;;;0.75;;
44981;SDS011;30716;41.740;-70.400;2023-06-19T03:26:35;3.28;;;1.27;;
44981;SDS011;30716;41.740;-70.400;2023-06-19T03:29:02;4.80;;;1.58;;
44981;SDS011;30716;41.740;-70.400;2023-06-19T03:31:28;3.90;;;1.00;;
44981;SDS011;30716;41.740;-70.400;2023-06-19T03:33:54;4.53;;;1.77;;
44981;SDS011;30716;41.740;-70.400;2023-06-19T03:36:20;2.47;;;1.00;;
44981;SDS011;30716;41.740;-70.400;2023-06-19T03:38:48;4.55;;;1.67;;
44981;SDS011;30716;41.740;-70.400;2023-06-19T03:41:14;3.17;;;1.10;;
44981;SDS011;30716;41.740;-70.400;2023-06-19T03:43:40;3.25;;;0.77;;
44981;SDS011;30716;41.740;-70.400;2023-06-19T03:46:06;2.17;;;1.10;;
44981;SDS011;30716;41.740;-70.400;2023-06-19T03:48:32;1.42;;;0.77;;
44981;SDS011;30716;41.740;-70.400;2023-06-19T03:50:59;2.13;;;0.85;;
44981;SDS011;30716;41.740;-70.400;2023-06-19T03:53:25;1.45;;;0.70;;
44981;SDS011;30716;41.740;-70.400;2023-06-19T03:55:52;2.38;;;0.73;;
44981;SDS011;30716;41.740;-70.400;2023-06-19T03:58:18;2.63;;;1.00;;
44981;SDS011;30716;41.740;-70.400;2023-06-19T04:00:44;1.48;;;0.77;;
44981;SDS011;30716;41.740;-70.400;2023-06-19T04:03:11;2.50;;;1.00;;
44981;SDS011;30716;41.740;-70.400;2023-06-19T04:05:37;2.65;;;0.90;;
44981;SDS011;30716;41.740;-70.400;2023-06-19T04:08:04;2.03;;;0.75;;
44981;SDS011;30716;41.740;-70.400;2023-06-19T04:10:30;1.33;;;0.82;;
44981;SDS011;30716;41.740;-70.400;2023-06-19T04:12:56;1.42;;;0.90;;
44981;SDS011;30716;41.740;-70.400;2023-06-19T04:15:23;1.13;;;0.50;;
44981;SDS011;30716;41.740;-70.400;2023-06-19T04:17:49;4.00;;;1.05;;
44981;SDS011;30716;41.740;-70.400;2023-06-19T04:20:15;3.15;;;0.60;;
44981;SDS011;30716;41.740;-70.400;2023-06-19T04:22:41;2.22;;;0.60;;
44981;SDS011;30716;41.740;-70.400;2023-06-19T04:25:08;1.77;;;0.60;;
44981;SDS011;30716;41.740;-70.400;2023-06-19T04:27:35;1.00;;;0.50;;
44981;SDS011;30716;41.740;-70.400;2023-06-19T04:30:03;2.22;;;0.70;;
44981;SDS011;30716;41.740;-70.400;2023-06-19T04:32:31;2.10;;;0.70;;
44981;SDS011;30716;41.740;-70.400;2023-06-19T04:35:00;3.00;;;0.65;;
44981;SDS011;30716;41.740;-70.400;2023-06-19T04:37:26;1.45;;;0.65;;
44981;SDS011;30716;41.740;-70.400;2023-06-19T04:39:52;1.70;;;0.60;;
44981;SDS011;30716;41.740;-70.400;2023-06-19T04:42:18;1.25;;;0.60;;
44981;SDS011;30716;41.740;-70.400;2023-06-19T04:44:48;1.13;;;0.70;;
44981;SDS011;30716;41.740;-70.400;2023-06-19T04:47:18;8.40;;;1.30;;
44981;SDS011;30716;41.740;-70.400;2023-06-19T04:49:45;2.58;;;0.63;;
44981;SDS011;30716;41.740;-70.400;2023-06-19T04:52:12;2.80;;;0.50;;
44981;SDS011;30716;41.740;-70.400;2023-06-19T04:54:38;3.65;;;1.10;;
44981;SDS011;30716;41.740;-70.400;2023-06-19T04:57:04;0.57;;;0.25;;
44981;SDS011;30716;41.740;-70.400;2023-06-19T04:59:31;1.42;;;0.63;;
44981;SDS011;30716;41.740;-70.400;2023-06-19T05:01:58;1.00;;;0.50;;
44981;SDS011;30716;41.740;-70.400;2023-06-19T05:04:25;1.58;;;0.40;;
44981;SDS011;30716;41.740;-70.400;2023-06-19T05:06:51;1.13;;;0.45;;
44981;SDS011;30716;41.740;-70.400;2023-06-19T05:09:17;2.30;;;0.60;;
44981;SDS011;30716;41.740;-70.400;2023-06-19T05:11:45;1.63;;;0.60;;
44981;SDS011;30716;41.740;-70.400;2023-06-19T05:14:11;1.02;;;0.22;;
44981;SDS011;30716;41.740;-70.400;2023-06-19T05:16:39;1.75;;;0.57;;
44981;SDS011;30716;41.740;-70.400;2023-06-19T05:19:05;1.42;;;0.52;;
44981;SDS011;30716;41.740;-70.400;2023-06-19T05:21:31;3.00;;;0.70;;
44981;SDS011;30716;41.740;-70.400;2023-06-19T05:23:57;1.40;;;0.50;;
44981;SDS011;30716;41.740;-70.400;2023-06-19T05:26:24;1.60;;;0.55;;
44981;SDS011;30716;41.740;-70.400;2023-06-19T05:28:51;0.52;;;0.30;;
44981;SDS011;30716;41.740;-70.400;2023-06-19T05:31:17;0.50;;;0.35;;
44981;SDS011;30716;41.740;-70.400;2023-06-19T05:33:44;0.68;;;0.40;;
44981;SDS011;30716;41.740;-70.400;2023-06-19T05:36:10;1.00;;;0.50;;
44981;SDS011;30716;41.740;-70.400;2023-06-19T05:38:37;1.15;;;0.30;;
44981;SDS011;30716;41.740;-70.400;2023-06-19T05:41:03;1.42;;;0.60;;
44981;SDS011;30716;41.740;-70.400;2023-06-19T05:43:29;0.73;;;0.30;;
44981;SDS011;30716;41.740;-70.400;2023-06-19T05:45:57;2.10;;;0.52;;
44981;SDS011;30716;41.740;-70.400;2023-06-19T05:48:25;1.42;;;0.50;;
44981;SDS011;30716;41.740;-70.400;2023-06-19T05:50:51;1.40;;;0.60;;
44981;SDS011;30716;41.740;-70.400;2023-06-19T05:53:17;1.35;;;0.50;;
44981;SDS011;30716;41.740;-70.400;2023-06-19T05:55:43;0.98;;;0.40;;
44981;SDS011;30716;41.740;-70.400;2023-06-19T05:58:09;1.15;;;0.55;;
44981;SDS011;30716;41.740;-70.400;2023-06-19T06:00:36;1.45;;;0.70;;
44981;SDS011;30716;41.740;-70.400;2023-06-19T06:03:02;1.17;;;0.40;;
44981;SDS011;30716;41.740;-70.400;2023-06-19T06:05:28;1.55;;;0.22;;
44981;SDS011;30716;41.740;-70.400;2023-06-19T06:07:54;1.70;;;0.80;;
44981;SDS011;30716;41.740;-70.400;2023-06-19T06:10:21;1.35;;;0.50;;
44981;SDS011;30716;41.740;-70.400;2023-06-19T06:12:48;0.82;;;0.40;;
44981;SDS011;30716;41.740;-70.400;2023-06-19T06:15:15;1.08;;;0.40;;
44981;SDS011;30716;41.740;-70.400;2023-06-19T06:17:41;0.65;;;0.38;;
44981;SDS011;30716;41.740;-70.400;2023-06-19T06:20:07;1.20;;;0.40;;
44981;SDS011;30716;41.740;-70.400;2023-06-19T06:22:40;0.93;;;0.30;;
44981;SDS011;30716;41.740;-70.400;2023-06-19T06:25:07;0.50;;;0.30;;
44981;SDS011;30716;41.740;-70.400;2023-06-19T06:27:35;1.70;;;0.52;;
44981;SDS011;30716;41.740;-70.400;2023-06-19T06:30:02;1.02;;;0.35;;
44981;SDS011;30716;41.740;-70.400;2023-06-19T06:32:28;1.30;;;0.40;;
44981;SDS011;30716;41.740;-70.400;2023-06-19T06:34:56;0.90;;;0.35;;
44981;SDS011;30716;41.740;-70.400;2023-06-19T06:37:23;0.90;;;0.40;;
44981;SDS011;30716;41.740;-70.400;2023-06-19T06:39:50;2.05;;;0.40;;
44981;SDS011;30716;41.740;-70.400;2023-06-19T06:42:16;0.40;;;0.30;;
44981;SDS011;30716;41.740;-70.400;2023-06-19T06:44:44;0.43;;;0.32;;
44981;SDS011;30716;41.740;-70.400;2023-06-19T06:47:10;0.45;;;0.10;;
44981;SDS011;30716;41.740;-70.400;2023-06-19T06:49:37;0.88;;;0.30;;
44981;SDS011;30716;41.740;-70.400;2023-06-19T06:52:03;0.90;;;0.45;;
44981;SDS011;30716;41.740;-70.400;2023-06-19T06:54:30;0.40;;;0.20;;
44981;SDS011;30716;41.740;-70.400;2023-06-19T06:56:56;0.47;;;0.22;;
44981;SDS011;30716;41.740;-70.400;2023-06-19T06:59:24;2.00;;;0.50;;
44981;SDS011;30716;41.740;-70.400;2023-06-19T07:01:50;0.93;;;0.40;;
44981;SDS011;30716;41.740;-70.400;2023-06-19T07:04:16;0.68;;;0.20;;
44981;SDS011;30716;41.740;-70.400;2023-06-19T07:06:42;0.88;;;0.20;;
44981;SDS011;30716;41.740;-70.400;2023-06-19T07:09:09;1.17;;;0.40;;
44981;SDS011;30716;41.740;-70.400;2023-06-19T07:11:35;0.50;;;0.20;;
44981;SDS011;30716;41.740;-70.400;2023-06-19T07:14:02;1.55;;;0.20;;
44981;SDS011;30716;41.740;-70.400;2023-06-19T07:16:28;1.10;;;0.28;;
44981;SDS011;30716;41.740;-70.400;2023-06-19T07:18:54;0.65;;;0.25;;
44981;SDS011;30716;41.740;-70.400;2023-06-19T07:21:20;1.08;;;0.22;;
44981;SDS011;30716;41.740;-70.400;2023-06-19T07:23:47;0.22;;;0.20;;
44981;SDS011;30716;41.740;-70.400;2023-06-19T07:26:13;0.28;;;0.28;;
44981;SDS011;30716;41.740;-70.400;2023-06-19T07:28:40;0.65;;;0.25;;
44981;SDS011;30716;41.740;-70.400;2023-06-19T07:31:09;1.10;;;0.38;;
44981;SDS011;30716;41.740;-70.400;2023-06-19T07:33:35;1.35;;;0.47;;
44981;SDS011;30716;41.740;-70.400;2023-06-19T07:36:01;0.63;;;0.40;;
44981;SDS011;30716;41.740;-70.400;2023-06-19T07:38:28;0.47;;;0.20;;
44981;SDS011;30716;41.740;-70.400;2023-06-19T07:40:54;0.20;;;0.20;;
44981;SDS011;30716;41.740;-70.400;2023-06-19T07:43:21;0.73;;;0.32;;
44981;SDS011;30716;41.740;-70.400;2023-06-19T07:45:50;0.57;;;0.30;;
44981;SDS011;30716;41.740;-70.400;2023-06-19T07:48:16;1.02;;;0.32;;
44981;SDS011;30716;41.740;-70.400;2023-06-19T07:50:42;0.22;;;0.17;;
44981;SDS011;30716;41.740;-70.400;2023-06-19T07:53:08;0.98;;;0.40;;
44981;SDS011;30716;41.740;-70.400;2023-06-19T07:55:35;1.10;;;0.30;;
44981;SDS011;30716;41.740;-70.400;2023-06-19T07:58:01;0.57;;;0.30;;
44981;SDS011;30716;41.740;-70.400;2023-06-19T08:00:27;1.60;;;0.45;;
44981;SDS011;30716;41.740;-70.400;2023-06-19T08:02:54;1.75;;;0.32;;
44981;SDS011;30716;41.740;-70.400;2023-06-19T08:05:21;1.17;;;0.35;;
44981;SDS011;30716;41.740;-70.400;2023-06-19T08:07:47;0.85;;;0.30;;
44981;SDS011;30716;41.740;-70.400;2023-06-19T08:10:13;0.93;;;0.20;;
44981;SDS011;30716;41.740;-70.400;2023-06-19T08:12:43;1.42;;;0.35;;
44981;SDS011;30716;41.740;-70.400;2023-06-19T08:15:10;0.38;;;0.30;;
44981;SDS011;30716;41.740;-70.400;2023-06-19T08:17:38;0.40;;;0.20;;
44981;SDS011;30716;41.740;-70.400;2023-06-19T08:20:05;1.77;;;0.40;;
44981;SDS011;30716;41.740;-70.400;2023-06-19T08:22:32;0.45;;;0.28;;
44981;SDS011;30716;41.740;-70.400;2023-06-19T08:24:58;1.58;;;0.43;;
44981;SDS011;30716;41.740;-70.400;2023-06-19T08:27:24;0.45;;;0.17;;
44981;SDS011;30716;41.740;-70.400;2023-06-19T08:29:51;0.52;;;0.30;;
44981;SDS011;30716;41.740;-70.400;2023-06-19T08:32:17;2.70;;;0.30;;
44981;SDS011;30716;41.740;-70.400;2023-06-19T08:34:43;0.82;;;0.60;;
44981;SDS011;30716;41.740;-70.400;2023-06-19T08:37:09;1.27;;;0.28;;
44981;SDS011;30716;41.740;-70.400;2023-06-19T08:39:35;0.82;;;0.20;;
44981;SDS011;30716;41.740;-70.400;2023-06-19T08:42:03;0.55;;;0.30;;
44981;SDS011;30716;41.740;-70.400;2023-06-19T08:44:32;1.95;;;0.30;;
44981;SDS011;30716;41.740;-70.400;2023-06-19T08:47:00;0.95;;;0.30;;
44981;SDS011;30716;41.740;-70.400;2023-06-19T08:49:34;0.55;;;0.20;;
44981;SDS011;30716;41.740;-70.400;2023-06-19T08:52:01;4.13;;;0.50;;
44981;SDS011;30716;41.740;-70.400;2023-06-19T08:54:29;0.55;;;0.30;;
44981;SDS011;30716;41.740;-70.400;2023-06-19T08:56:55;0.60;;;0.30;;
44981;SDS011;30716;41.740;-70.400;2023-06-19T08:59:21;0.52;;;0.20;;
44981;SDS011;30716;41.740;-70.400;2023-06-19T09:01:48;1.23;;;0.40;;
44981;SDS011;30716;41.740;-70.400;2023-06-19T09:04:28;0.45;;;0.28;;
44981;SDS011;30716;41.740;-70.400;2023-06-19T09:07:00;1.80;;;0.20;;
44981;SDS011;30716;41.740;-70.400;2023-06-19T09:09:28;0.60;;;0.30;;
44981;SDS011;30716;41.740;-70.400;2023-06-19T09:12:04;0.88;;;0.30;;
44981;SDS011;30716;41.740;-70.400;2023-06-19T09:14:32;0.95;;;0.20;;
44981;SDS011;30716;41.740;-70.400;2023-06-19T09:17:12;2.50;;;0.88;;
44981;SDS011;30716;41.740;-70.400;2023-06-19T10:57:17;0.20;;;0.17;;
44981;SDS011;30716;41.740;-70.400;2023-06-19T10:59:43;2.28;;;0.32;;
44981;SDS011;30716;41.740;-70.400;2023-06-19T11:02:09;0.55;;;0.40;;
44981;SDS011;30716;41.740;-70.400;2023-06-19T11:04:37;0.20;;;0.20;;
44981;SDS011;30716;41.740;-70.400;2023-06-19T11:07:04;1.45;;;0.10;;
44981;SDS011;30716;41.740;-70.400;2023-06-19T11:09:31;0.40;;;0.10;;
44981;SDS011;30716;41.740;-70.400;2023-06-19T11:11:57;0.17;;;0.10;;
44981;SDS011;30716;41.740;-70.400;2023-06-19T11:14:28;0.20;;;0.17;;
44981;SDS011;30716;41.740;-70.400;2023-06-19T11:16:55;0.25;;;0.20;;
44981;SDS011;30716;41.740;-70.400;2023-06-19T11:19:21;0.73;;;0.30;;
44981;SDS011;30716;41.740;-70.400;2023-06-19T11:21:51;0.25;;;0.10;;
44981;SDS011;30716;41.740;-70.400;2023-06-19T11:24:18;0.98;;;0.25;;
44981;SDS011;30716;41.740;-70.400;2023-06-19T11:26:46;0.43;;;0.20;;
44981;SDS011;30716;41.740;-70.400;2023-06-19T11:29:17;2.67;;;1.40;;
44981;SDS011;30716;41.740;-70.400;2023-06-19T11:31:44;0.73;;;0.22;;
44981;SDS011;30716;41.740;-70.400;2023-06-19T11:34:10;1.65;;;0.63;;
44981;SDS011;30716;41.740;-70.400;2023-06-19T11:36:37;0.30;;;0.30;;
44981;SDS011;30716;41.740;-70.400;2023-06-19T11:39:04;1.73;;;1.02;;
44981;SDS011;30716;41.740;-70.400;2023-06-19T11:41:34;1.92;;;0.73;;
44981;SDS011;30716;41.740;-70.400;2023-06-19T11:44:03;2.67;;;1.00;;
44981;SDS011;30716;41.740;-70.400;2023-06-19T11:46:31;1.33;;;0.80;;
44981;SDS011;30716;41.740;-70.400;2023-06-19T11:49:08;2.17;;;1.00;;
44981;SDS011;30716;41.740;-70.400;2023-06-19T11:51:35;1.48;;;0.70;;
44981;SDS011;30716;41.740;-70.400;2023-06-19T11:54:02;2.67;;;0.60;;
44981;SDS011;30716;41.740;-70.400;2023-06-19T11:56:30;0.80;;;0.50;;
44981;SDS011;30716;41.740;-70.400;2023-06-19T11:58:56;5.28;;;1.25;;
44981;SDS011;30716;41.740;-70.400;2023-06-19T12:01:23;1.73;;;0.45;;
44981;SDS011;30716;41.740;-70.400;2023-06-19T12:03:49;1.23;;;0.55;;
44981;SDS011;30716;41.740;-70.400;2023-06-19T12:06:16;0.52;;;0.40;;
44981;SDS011;30716;41.740;-70.400;2023-06-19T12:08:43;3.08;;;0.68;;
44981;SDS011;30716;41.740;-70.400;2023-06-19T12:11:09;1.52;;;0.77;;
44981;SDS011;30716;41.740;-70.400;2023-06-19T12:13:35;0.98;;;0.40;;
44981;SDS011;30716;41.740;-70.400;2023-06-19T12:16:02;7.10;;;1.00;;
44981;SDS011;30716;41.740;-70.400;2023-06-19T12:18:29;1.95;;;0.45;;
44981;SDS011;30716;41.740;-70.400;2023-06-19T12:20:57;0.82;;;0.30;;
44981;SDS011;30716;41.740;-70.400;2023-06-19T12:23:23;3.97;;;0.65;;
44981;SDS011;30716;41.740;-70.400;2023-06-19T12:25:49;2.03;;;0.43;;
44981;SDS011;30716;41.740;-70.400;2023-06-19T12:28:15;2.38;;;0.30;;
44981;SDS011;30716;41.740;-70.400;2023-06-19T12:30:47;2.65;;;0.55;;
44981;SDS011;30716;41.740;-70.400;2023-06-19T12:33:16;2.28;;;0.50;;
44981;SDS011;30716;41.740;-70.400;2023-06-19T12:35:43;1.65;;;0.65;;
44981;SDS011;30716;41.740;-70.400;2023-06-19T12:38:10;2.00;;;0.60;;
44981;SDS011;30716;41.740;-70.400;2023-06-19T12:40:36;1.45;;;0.40;;
44981;SDS011;30716;41.740;-70.400;2023-06-19T12:43:03;1.38;;;0.40;;
44981;SDS011;30716;41.740;-70.400;2023-06-19T12:45:29;1.70;;;0.30;;
44981;SDS011;30716;41.740;-70.400;2023-06-19T12:47:55;1.35;;;0.45;;
44981;SDS011;30716;41.740;-70.400;2023-06-19T12:50:22;0.90;;;0.65;;
44981;SDS011;30716;41.740;-70.400;2023-06-19T12:52:48;0.60;;;0.35;;
44981;SDS011;30716;41.740;-70.400;2023-06-19T12:55:15;1.33;;;0.57;;
44981;SDS011;30716;41.740;-70.400;2023-06-19T12:57:41;1.25;;;0.43;;
44981;SDS011;30716;41.740;-70.400;2023-06-19T13:00:09;2.47;;;1.08;;
44981;SDS011;30716;41.740;-70.400;2023-06-19T13:02:40;1.77;;;0.70;;
44981;SDS011;30716;41.740;-70.400;2023-06-19T13:05:08;1.33;;;0.50;;
44981;SDS011;30716;41.740;-70.400;2023-06-19T13:07:35;2.00;;;0.50;;
44981;SDS011;30716;41.740;-70.400;2023-06-19T13:10:01;1.27;;;0.75;;
44981;SDS011;30716;41.740;-70.400;2023-06-19T13:12:28;1.30;;;0.45;;
44981;SDS011;30716;41.740;-70.400;2023-06-19T13:14:55;1.00;;;0.43;;
44981;SDS011;30716;41.740;-70.400;2023-06-19T13:17:21;3.67;;;0.60;;
44981;SDS011;30716;41.740;-70.400;2023-06-19T13:19:47;0.73;;;0.35;;
44981;SDS011;30716;41.740;-70.400;2023-06-19T13:22:13;1.30;;;0.30;;
44981;SDS011;30716;41.740;-70.400;2023-06-19T13:24:39;0.85;;;0.40;;
44981;SDS011;30716;41.740;-70.400;2023-06-19T13:27:05;1.23;;;0.35;;
44981;SDS011;30716;41.740;-70.400;2023-06-19T13:29:32;0.22;;;0.20;;
44981;SDS011;30716;41.740;-70.400;2023-06-19T13:31:58;1.77;;;0.40;;
44981;SDS011;30716;41.740;-70.400;2023-06-19T13:34:24;1.45;;;0.35;;
44981;SDS011;30716;41.740;-70.400;2023-06-19T13:36:51;0.80;;;0.20;;
44981;SDS011;30716;41.740;-70.400;2023-06-19T13:39:17;0.63;;;0.30;;
44981;SDS011;30716;41.740;-70.400;2023-06-19T13:41:45;1.08;;;0.32;;
44981;SDS011;30716;41.740;-70.400;2023-06-19T13:44:11;0.30;;;0.30;;
44981;SDS011;30716;41.740;-70.400;2023-06-19T13:46:38;0.50;;;0.30;;
44981;SDS011;30716;41.740;-70.400;2023-06-19T13:49:04;1.15;;;0.50;;
44981;SDS011;30716;41.740;-70.400;2023-06-19T13:51:30;1.08;;;0.40;;
44981;SDS011;30716;41.740;-70.400;2023-06-19T13:53:57;0.55;;;0.30;;
44981;SDS011;30716;41.740;-70.400;2023-06-19T13:56:24;0.47;;;0.20;;
44981;SDS011;30716;41.740;-70.400;2023-06-19T13:58:50;1.60;;;0.30;;
44981;SDS011;30716;41.740;-70.400;2023-06-19T14:01:16;0.43;;;0.20;;
44981;SDS011;30716;41.740;-70.400;2023-06-19T14:03:42;0.90;;;0.38;;
44981;SDS011;30716;41.740;-70.400;2023-06-19T14:06:09;0.88;;;0.52;;
44981;SDS011;30716;41.740;-70.400;2023-06-19T14:08:35;0.50;;;0.32;;
44981;SDS011;30716;41.740;-70.400;2023-06-19T14:11:01;1.02;;;0.30;;
44981;SDS011;30716;41.740;-70.400;2023-06-19T14:13:27;1.13;;;0.50;;
44981;SDS011;30716;41.740;-70.400;2023-06-19T14:15:54;0.60;;;0.20;;
44981;SDS011;30716;41.740;-70.400;2023-06-19T14:18:20;2.15;;;0.63;;
44981;SDS011;30716;41.740;-70.400;2023-06-19T14:20:46;0.95;;;0.38;;
44981;SDS011;30716;41.740;-70.400;2023-06-19T14:23:12;0.45;;;0.20;;
44981;SDS011;30716;41.740;-70.400;2023-06-19T14:25:38;1.02;;;0.57;;
44981;SDS011;30716;41.740;-70.400;2023-06-19T14:28:04;0.32;;;0.30;;
44981;SDS011;30716;41.740;-70.400;2023-06-19T14:30:30;1.02;;;0.50;;
44981;SDS011;30716;41.740;-70.400;2023-06-19T14:32:57;1.85;;;0.30;;
44981;SDS011;30716;41.740;-70.400;2023-06-19T14:35:23;0.85;;;0.30;;
44981;SDS011;30716;41.740;-70.400;2023-06-19T14:37:49;0.47;;;0.30;;
44981;SDS011;30716;41.740;-70.400;2023-06-19T14:40:15;0.98;;;0.30;;
44981;SDS011;30716;41.740;-70.400;2023-06-19T14:42:42;0.95;;;0.28;;
44981;SDS011;30716;41.740;-70.400;2023-06-19T14:45:08;0.63;;;0.43;;
44981;SDS011;30716;41.740;-70.400;2023-06-19T14:47:35;0.43;;;0.20;;
44981;SDS011;30716;41.740;-70.400;2023-06-19T14:50:01;0.63;;;0.20;;
44981;SDS011;30716;41.740;-70.400;2023-06-19T14:52:27;1.27;;;0.50;;
44981;SDS011;30716;41.740;-70.400;2023-06-19T14:54:54;0.63;;;0.30;;
44981;SDS011;30716;41.740;-70.400;2023-06-19T14:57:20;0.75;;;0.40;;
44981;SDS011;30716;41.740;-70.400;2023-06-19T14:59:46;2.63;;;0.30;;
44981;SDS011;30716;41.740;-70.400;2023-06-19T15:02:12;1.73;;;0.70;;
44981;SDS011;30716;41.740;-70.400;2023-06-19T15:04:38;0.50;;;0.28;;
44981;SDS011;30716;41.740;-70.400;2023-06-19T15:07:04;0.47;;;0.30;;
44981;SDS011;30716;41.740;-70.400;2023-06-19T15:09:31;1.25;;;0.50;;
44981;SDS011;30716;41.740;-70.400;2023-06-19T15:11:57;0.47;;;0.30;;
44981;SDS011;30716;41.740;-70.400;2023-06-19T15:14:23;1.17;;;0.45;;
44981;SDS011;30716;41.740;-70.400;2023-06-19T15:16:50;1.55;;;0.28;;
44981;SDS011;30716;41.740;-70.400;2023-06-19T15:19:16;3.03;;;0.30;;
44981;SDS011;30716;41.740;-70.400;2023-06-19T15:21:42;9.73;;;0.85;;
44981;SDS011;30716;41.740;-70.400;2023-06-19T15:24:08;0.57;;;0.20;;
44981;SDS011;30716;41.740;-70.400;2023-06-19T15:26:34;0.88;;;0.30;;
44981;SDS011;30716;41.740;-70.400;2023-06-19T15:29:01;1.25;;;0.40;;
44981;SDS011;30716;41.740;-70.400;2023-06-19T15:31:28;0.98;;;0.20;;
44981;SDS011;30716;41.740;-70.400;2023-06-19T15:33:54;1.20;;;0.20;;
44981;SDS011;30716;41.740;-70.400;2023-06-19T15:36:20;0.55;;;0.30;;
44981;SDS011;30716;41.740;-70.400;2023-06-19T15:38:46;0.47;;;0.30;;
44981;SDS011;30716;41.740;-70.400;2023-06-19T15:41:13;0.50;;;0.30;;
44981;SDS011;30716;41.740;-70.400;2023-06-19T15:43:39;0.85;;;0.32;;
44981;SDS011;30716;41.740;-70.400;2023-06-19T15:46:06;0.75;;;0.30;;
44981;SDS011;30716;41.740;-70.400;2023-06-19T15:48:34;0.93;;;0.35;;
44981;SDS011;30716;41.740;-70.400;2023-06-19T15:51:00;1.23;;;0.40;;
44981;SDS011;30716;41.740;-70.400;2023-06-19T15:53:26;0.73;;;0.30;;
44981;SDS011;30716;41.740;-70.400;2023-06-19T15:55:53;1.70;;;0.30;;
44981;SDS011;30716;41.740;-70.400;2023-06-19T15:58:20;0.20;;;0.10;;
44981;SDS011;30716;41.740;-70.400;2023-06-19T16:00:46;0.45;;;0.20;;
44981;SDS011;30716;41.740;-70.400;2023-06-19T16:03:16;0.80;;;0.50;;
44981;SDS011;30716;41.740;-70.400;2023-06-19T16:05:43;1.35;;;0.50;;
44981;SDS011;30716;41.740;-70.400;2023-06-19T16:08:11;0.73;;;0.50;;
44981;SDS011;30716;41.740;-70.400;2023-06-19T16:10:37;1.25;;;0.40;;
44981;SDS011;30716;41.740;-70.400;2023-06-19T16:13:03;1.38;;;0.60;;
44981;SDS011;30716;41.740;-70.400;2023-06-19T16:15:29;0.88;;;0.40;;
44981;SDS011;30716;41.740;-70.400;2023-06-19T16:17:56;0.70;;;0.43;;
44981;SDS011;30716;41.740;-70.400;2023-06-19T16:20:23;0.82;;;0.35;;
44981;SDS011;30716;41.740;-70.400;2023-06-19T16:22:49;0.98;;;0.40;;
44981;SDS011;30716;41.740;-70.400;2023-06-19T16:25:16;3.80;;;0.40;;
44981;SDS011;30716;41.740;-70.400;2023-06-19T16:27:42;5.57;;;0.65;;
44981;SDS011;30716;41.740;-70.400;2023-06-19T16:30:09;1.60;;;0.40;;
44981;SDS011;30716;41.740;-70.400;2023-06-19T16:32:35;0.75;;;0.30;;
44981;SDS011;30716;41.740;-70.400;2023-06-19T16:35:01;1.80;;;0.45;;
44981;SDS011;30716;41.740;-70.400;2023-06-19T16:37:28;1.40;;;0.57;;
44981;SDS011;30716;41.740;-70.400;2023-06-19T16:39:54;0.90;;;0.52;;
44981;SDS011;30716;41.740;-70.400;2023-06-19T16:42:20;0.73;;;0.30;;
44981;SDS011;30716;41.740;-70.400;2023-06-19T16:44:48;1.23;;;0.35;;
44981;SDS011;30716;41.740;-70.400;2023-06-19T16:47:14;1.77;;;0.45;;
44981;SDS011;30716;41.740;-70.400;2023-06-19T16:49:40;3.05;;;0.60;;